sensor_id;sensor_type;location;lat;lon;timestamp;temperature;humidity
60848;DHT22;46681;47.696;9.140;2023-03-14T00:01:21;13.70;66.80
60848;DHT22;46681;47.696;9.140;2023-03-14T00:03:48;13.70;67.90
60848;DHT22;46681;47.696;9.140;2023-03-14T00:06:18;13.70;67.70
60848;DHT22;46681;47.696;9.140;2023-03-14T00:08:46;13.60;68.30
60848;DHT22;46681;47.696;9.140;2023-03-14T00:11:22;13.60;68.60
60848;DHT22;46681;47.696;9.140;2023-03-14T00:13:50;13.60;69.00
60848;DHT22;46681;47.696;9.140;2023-03-14T00:16:19;13.50;69.10
60848;DHT22;46681;47.696;9.140;2023-03-14T00:18:48;13.50;69.50
60848;DHT22;46681;47.696;9.140;2023-03-14T00:21:15;13.50;69.80
60848;DHT22;46681;47.696;9.140;2023-03-14T00:23:43;13.50;69.70
60848;DHT22;46681;47.696;9.140;2023-03-14T00:26:15;13.50;70.00
60848;DHT22;46681;47.696;9.140;2023-03-14T00:28:43;13.40;70.50
60848;DHT22;46681;47.696;9.140;2023-03-14T00:31:13;13.40;70.40
60848;DHT22;46681;47.696;9.140;2023-03-14T00:33:42;13.40;70.80
60848;DHT22;46681;47.696;9.140;2023-03-14T00:36:12;13.40;70.60
60848;DHT22;46681;47.696;9.140;2023-03-14T00:38:40;13.40;71.70
60848;DHT22;46681;47.696;9.140;2023-03-14T00:41:10;13.40;71.00
60848;DHT22;46681;47.696;9.140;2023-03-14T00:43:36;13.40;71.00
60848;DHT22;46681;47.696;9.140;2023-03-14T00:46:03;13.30;70.90
60848;DHT22;46681;47.696;9.140;2023-03-14T00:48:31;13.30;71.90
60848;DHT22;46681;47.696;9.140;2023-03-14T00:50:58;13.30;71.60
60848;DHT22;46681;47.696;9.140;2023-03-14T00:53:24;13.30;71.70
60848;DHT22;46681;47.696;9.140;2023-03-14T00:55:52;13.20;72.00
60848;DHT22;46681;47.696;9.140;2023-03-14T00:58:19;13.20;71.20
60848;DHT22;46681;47.696;9.140;2023-03-14T01:00:46;13.20;71.70
60848;DHT22;46681;47.696;9.140;2023-03-14T01:03:14;13.20;71.90
60848;DHT22;46681;47.696;9.140;2023-03-14T01:05:42;13.10;72.20
60848;DHT22;46681;47.696;9.140;2023-03-14T01:08:10;13.20;72.80
60848;DHT22;46681;47.696;9.140;2023-03-14T01:10:41;13.10;72.40
60848;DHT22;46681;47.696;9.140;2023-03-14T01:13:07;13.10;72.40
60848;DHT22;46681;47.696;9.140;2023-03-14T01:15:36;13.10;72.40
60848;DHT22;46681;47.696;9.140;2023-03-14T01:18:02;13.10;72.20
60848;DHT22;46681;47.696;9.140;2023-03-14T01:20:29;13.10;72.40
60848;DHT22;46681;47.696;9.140;2023-03-14T01:22:56;13.10;72.30
60848;DHT22;46681;47.696;9.140;2023-03-14T01:25:23;13.10;72.20
60848;DHT22;46681;47.696;9.140;2023-03-14T01:27:50;13.00;72.70
60848;DHT22;46681;47.696;9.140;2023-03-14T01:30:17;13.00;73.10
60848;DHT22;46681;47.696;9.140;2023-03-14T01:32:46;13.00;72.50
60848;DHT22;46681;47.696;9.140;2023-03-14T01:35:12;13.00;72.30
60848;DHT22;46681;47.696;9.140;2023-03-14T01:37:39;12.90;72.40
60848;DHT22;46681;47.696;9.140;2023-03-14T01:40:09;12.90;72.50
60848;DHT22;46681;47.696;9.140;2023-03-14T01:42:37;12.90;72.40
60848;DHT22;46681;47.696;9.140;2023-03-14T01:45:04;12.90;72.80
60848;DHT22;46681;47.696;9.140;2023-03-14T01:47:31;12.90;72.80
60848;DHT22;46681;47.696;9.140;2023-03-14T01:50:08;12.90;72.70
60848;DHT22;46681;47.696;9.140;2023-03-14T01:52:46;12.80;72.20
60848;DHT22;46681;47.696;9.140;2023-03-14T01:55:17;12.80;72.40
60848;DHT22;46681;47.696;9.140;2023-03-14T01:57:49;12.80;72.20
60848;DHT22;46681;47.696;9.140;2023-03-14T02:00:20;12.80;72.40
60848;DHT22;46681;47.696;9.140;2023-03-14T02:02:48;12.80;72.80
60848;DHT22;46681;47.696;9.140;2023-03-14T02:05:23;12.80;72.70
60848;DHT22;46681;47.696;9.140;2023-03-14T02:07:54;12.70;73.00
60848;DHT22;46681;47.696;9.140;2023-03-14T02:10:31;12.70;73.10
60848;DHT22;46681;47.696;9.140;2023-03-14T02:13:02;12.70;72.90
60848;DHT22;46681;47.696;9.140;2023-03-14T02:15:31;12.70;73.60
60848;DHT22;46681;47.696;9.140;2023-03-14T02:17:59;12.70;73.10
60848;DHT22;46681;47.696;9.140;2023-03-14T02:27:17;12.60;73.50
60848;DHT22;46681;47.696;9.140;2023-03-14T02:30:16;12.60;73.40
60848;DHT22;46681;47.696;9.140;2023-03-14T02:33:01;12.60;73.30
60848;DHT22;46681;47.696;9.140;2023-03-14T02:35:39;12.60;73.60
60848;DHT22;46681;47.696;9.140;2023-03-14T02:38:35;12.60;73.70
60848;DHT22;46681;47.696;9.140;2023-03-14T02:41:02;12.60;73.50
60848;DHT22;46681;47.696;9.140;2023-03-14T02:43:30;12.50;73.40
60848;DHT22;46681;47.696;9.140;2023-03-14T02:45:57;12.50;73.60
60848;DHT22;46681;47.696;9.140;2023-03-14T02:48:33;12.50;73.50
60848;DHT22;46681;47.696;9.140;2023-03-14T02:51:01;12.50;73.60
60848;DHT22;46681;47.696;9.140;2023-03-14T02:53:31;12.50;73.60
60848;DHT22;46681;47.696;9.140;2023-03-14T02:56:00;12.50;73.30
60848;DHT22;46681;47.696;9.140;2023-03-14T02:58:28;12.50;73.60
60848;DHT22;46681;47.696;9.140;2023-03-14T03:00:55;12.40;73.40
60848;DHT22;46681;47.696;9.140;2023-03-14T03:03:21;12.40;73.60
60848;DHT22;46681;47.696;9.140;2023-03-14T03:05:52;12.40;73.30
60848;DHT22;46681;47.696;9.140;2023-03-14T03:08:21;12.40;73.30
60848;DHT22;46681;47.696;9.140;2023-03-14T03:10:49;12.40;73.10
60848;DHT22;46681;47.696;9.140;2023-03-14T03:13:17;12.40;72.70
60848;DHT22;46681;47.696;9.140;2023-03-14T03:15:46;12.30;72.90
60848;DHT22;46681;47.696;9.140;2023-03-14T03:18:13;12.30;73.10
60848;DHT22;46681;47.696;9.140;2023-03-14T03:20:40;12.30;73.00
60848;DHT22;46681;47.696;9.140;2023-03-14T03:23:05;12.30;73.00
60848;DHT22;46681;47.696;9.140;2023-03-14T03:25:31;12.30;73.00
60848;DHT22;46681;47.696;9.140;2023-03-14T03:27:58;12.30;73.00
60848;DHT22;46681;47.696;9.140;2023-03-14T03:30:25;12.20;72.80
60848;DHT22;46681;47.696;9.140;2023-03-14T03:32:51;12.20;72.90
60848;DHT22;46681;47.696;9.140;2023-03-14T03:35:20;12.20;72.40
60848;DHT22;46681;47.696;9.140;2023-03-14T03:37:48;12.20;72.30
60848;DHT22;46681;47.696;9.140;2023-03-14T03:40:14;12.20;72.60
60848;DHT22;46681;47.696;9.140;2023-03-14T03:42:43;12.10;72.80
60848;DHT22;46681;47.696;9.140;2023-03-14T03:45:10;12.10;72.60
60848;DHT22;46681;47.696;9.140;2023-03-14T03:47:35;12.10;72.30
60848;DHT22;46681;47.696;9.140;2023-03-14T03:50:01;12.10;72.40
60848;DHT22;46681;47.696;9.140;2023-03-14T03:52:26;12.10;72.40
60848;DHT22;46681;47.696;9.140;2023-03-14T03:54:54;12.00;72.20
60848;DHT22;46681;47.696;9.140;2023-03-14T03:57:20;12.10;72.70
60848;DHT22;46681;47.696;9.140;2023-03-14T03:59:47;12.10;72.90
60848;DHT22;46681;47.696;9.140;2023-03-14T04:02:14;12.00;72.90
60848;DHT22;46681;47.696;9.140;2023-03-14T04:04:40;12.00;72.30
60848;DHT22;46681;47.696;9.140;2023-03-14T04:07:09;12.00;72.20
60848;DHT22;46681;47.696;9.140;2023-03-14T04:09:37;12.00;72.90
60848;DHT22;46681;47.696;9.140;2023-03-14T04:12:04;12.00;72.50
60848;DHT22;46681;47.696;9.140;2023-03-14T04:14:31;12.00;72.70
60848;DHT22;46681;47.696;9.140;2023-03-14T04:16:57;12.00;71.90
60848;DHT22;46681;47.696;9.140;2023-03-14T04:19:24;12.00;72.20
60848;DHT22;46681;47.696;9.140;2023-03-14T04:21:52;11.90;72.30
60848;DHT22;46681;47.696;9.140;2023-03-14T04:24:19;11.90;72.30
60848;DHT22;46681;47.696;9.140;2023-03-14T04:26:46;11.90;72.20
60848;DHT22;46681;47.696;9.140;2023-03-14T04:29:13;11.90;72.10
60848;DHT22;46681;47.696;9.140;2023-03-14T04:31:42;11.90;72.10
60848;DHT22;46681;47.696;9.140;2023-03-14T04:34:09;12.00;71.70
60848;DHT22;46681;47.696;9.140;2023-03-14T04:36:35;11.90;71.50
60848;DHT22;46681;47.696;9.140;2023-03-14T04:39:01;12.00;71.90
60848;DHT22;46681;47.696;9.140;2023-03-14T04:41:30;12.00;71.80
60848;DHT22;46681;47.696;9.140;2023-03-14T04:43:57;12.00;71.80
60848;DHT22;46681;47.696;9.140;2023-03-14T04:46:23;12.00;72.00
60848;DHT22;46681;47.696;9.140;2023-03-14T04:48:57;12.00;71.60
60848;DHT22;46681;47.696;9.140;2023-03-14T04:51:26;12.00;71.90
60848;DHT22;46681;47.696;9.140;2023-03-14T04:53:55;12.00;71.90
60848;DHT22;46681;47.696;9.140;2023-03-14T04:56:21;12.00;72.50
60848;DHT22;46681;47.696;9.140;2023-03-14T04:58:48;12.10;72.20
60848;DHT22;46681;47.696;9.140;2023-03-14T05:01:15;12.00;72.50
60848;DHT22;46681;47.696;9.140;2023-03-14T05:03:42;12.00;72.00
60848;DHT22;46681;47.696;9.140;2023-03-14T05:06:08;12.00;71.60
60848;DHT22;46681;47.696;9.140;2023-03-14T05:08:36;12.00;71.80
60848;DHT22;46681;47.696;9.140;2023-03-14T05:11:01;12.00;71.80
60848;DHT22;46681;47.696;9.140;2023-03-14T05:13:28;11.90;72.20
60848;DHT22;46681;47.696;9.140;2023-03-14T05:16:11;11.90;71.90
60848;DHT22;46681;47.696;9.140;2023-03-14T05:18:37;11.90;72.30
60848;DHT22;46681;47.696;9.140;2023-03-14T05:21:04;11.80;72.40
60848;DHT22;46681;47.696;9.140;2023-03-14T05:23:31;11.80;72.50
60848;DHT22;46681;47.696;9.140;2023-03-14T05:25:58;11.80;72.30
60848;DHT22;46681;47.696;9.140;2023-03-14T05:28:25;11.80;72.40
60848;DHT22;46681;47.696;9.140;2023-03-14T05:30:56;11.80;72.30
60848;DHT22;46681;47.696;9.140;2023-03-14T05:33:23;11.80;72.50
60848;DHT22;46681;47.696;9.140;2023-03-14T05:35:51;11.80;72.60
60848;DHT22;46681;47.696;9.140;2023-03-14T05:38:17;11.70;72.80
60848;DHT22;46681;47.696;9.140;2023-03-14T05:40:44;11.70;72.20
60848;DHT22;46681;47.696;9.140;2023-03-14T05:43:13;11.70;72.50
60848;DHT22;46681;47.696;9.140;2023-03-14T05:45:46;11.70;72.20
60848;DHT22;46681;47.696;9.140;2023-03-14T05:48:18;11.70;72.20
60848;DHT22;46681;47.696;9.140;2023-03-14T05:50:47;11.70;72.00
60848;DHT22;46681;47.696;9.140;2023-03-14T05:53:14;11.60;71.90
60848;DHT22;46681;47.696;9.140;2023-03-14T05:55:41;11.60;71.60
60848;DHT22;46681;47.696;9.140;2023-03-14T05:58:08;11.60;72.00
60848;DHT22;46681;47.696;9.140;2023-03-14T06:00:35;11.60;72.00
60848;DHT22;46681;47.696;9.140;2023-03-14T06:03:03;11.60;72.00
60848;DHT22;46681;47.696;9.140;2023-03-14T06:05:30;11.60;72.30
60848;DHT22;46681;47.696;9.140;2023-03-14T06:07:57;11.60;72.30
60848;DHT22;46681;47.696;9.140;2023-03-14T06:10:25;11.60;72.20
60848;DHT22;46681;47.696;9.140;2023-03-14T06:12:56;11.60;72.70
60848;DHT22;46681;47.696;9.140;2023-03-14T06:15:23;11.50;72.20
60848;DHT22;46681;47.696;9.140;2023-03-14T06:17:54;11.60;72.30
60848;DHT22;46681;47.696;9.140;2023-03-14T06:20:21;11.60;72.70
60848;DHT22;46681;47.696;9.140;2023-03-14T06:22:51;11.60;72.10
60848;DHT22;46681;47.696;9.140;2023-03-14T06:25:24;11.60;72.40
60848;DHT22;46681;47.696;9.140;2023-03-14T06:27:54;11.60;72.20
60848;DHT22;46681;47.696;9.140;2023-03-14T06:30:24;11.60;72.40
60848;DHT22;46681;47.696;9.140;2023-03-14T06:32:50;11.60;72.50
60848;DHT22;46681;47.696;9.140;2023-03-14T06:35:22;11.60;71.50
60848;DHT22;46681;47.696;9.140;2023-03-14T06:37:49;11.70;72.00
60848;DHT22;46681;47.696;9.140;2023-03-14T06:40:24;11.70;71.40
60848;DHT22;46681;47.696;9.140;2023-03-14T06:43:03;11.70;71.20
60848;DHT22;46681;47.696;9.140;2023-03-14T06:45:30;11.70;71.00
60848;DHT22;46681;47.696;9.140;2023-03-14T06:47:58;11.70;70.90
60848;DHT22;46681;47.696;9.140;2023-03-14T06:50:32;11.60;71.50
60848;DHT22;46681;47.696;9.140;2023-03-14T06:52:59;11.70;71.00
60848;DHT22;46681;47.696;9.140;2023-03-14T06:55:29;11.60;69.50
60848;DHT22;46681;47.696;9.140;2023-03-14T06:58:02;11.60;68.60
60848;DHT22;46681;47.696;9.140;2023-03-14T07:00:29;11.50;68.00
60848;DHT22;46681;47.696;9.140;2023-03-14T07:02:56;11.50;67.90
60848;DHT22;46681;47.696;9.140;2023-03-14T07:05:22;11.40;67.80
60848;DHT22;46681;47.696;9.140;2023-03-14T07:07:51;11.40;67.40
60848;DHT22;46681;47.696;9.140;2023-03-14T07:10:17;11.40;67.20
60848;DHT22;46681;47.696;9.140;2023-03-14T07:12:50;11.40;67.00
60848;DHT22;46681;47.696;9.140;2023-03-14T07:15:20;11.40;67.80
60848;DHT22;46681;47.696;9.140;2023-03-14T07:17:48;11.40;67.00
60848;DHT22;46681;47.696;9.140;2023-03-14T07:20:16;11.40;66.80
60848;DHT22;46681;47.696;9.140;2023-03-14T07:22:43;11.40;66.90
60848;DHT22;46681;47.696;9.140;2023-03-14T07:25:10;11.40;67.40
60848;DHT22;46681;47.696;9.140;2023-03-14T07:27:36;11.40;67.40
60848;DHT22;46681;47.696;9.140;2023-03-14T07:30:08;11.40;67.50
60848;DHT22;46681;47.696;9.140;2023-03-14T07:32:40;11.50;67.50
60848;DHT22;46681;47.696;9.140;2023-03-14T07:35:18;11.50;67.20
60848;DHT22;46681;47.696;9.140;2023-03-14T07:37:48;11.50;67.30
60848;DHT22;46681;47.696;9.140;2023-03-14T07:40:20;11.50;67.10
60848;DHT22;46681;47.696;9.140;2023-03-14T07:42:52;11.50;66.30
60848;DHT22;46681;47.696;9.140;2023-03-14T07:45:19;11.50;66.00
60848;DHT22;46681;47.696;9.140;2023-03-14T07:47:49;11.60;66.00
60848;DHT22;46681;47.696;9.140;2023-03-14T07:50:16;11.50;65.90
60848;DHT22;46681;47.696;9.140;2023-03-14T07:52:43;11.50;65.50
60848;DHT22;46681;47.696;9.140;2023-03-14T07:55:11;11.60;66.10
60848;DHT22;46681;47.696;9.140;2023-03-14T07:57:37;11.60;66.10
60848;DHT22;46681;47.696;9.140;2023-03-14T08:00:07;11.60;65.70
60848;DHT22;46681;47.696;9.140;2023-03-14T08:02:33;11.60;66.20
60848;DHT22;46681;47.696;9.140;2023-03-14T08:05:03;11.70;65.30
60848;DHT22;46681;47.696;9.140;2023-03-14T08:07:31;11.70;65.50
60848;DHT22;46681;47.696;9.140;2023-03-14T08:10:01;11.80;66.50
60848;DHT22;46681;47.696;9.140;2023-03-14T08:12:31;11.80;66.00
60848;DHT22;46681;47.696;9.140;2023-03-14T08:15:06;11.80;65.10
60848;DHT22;46681;47.696;9.140;2023-03-14T08:17:40;11.80;65.80
60848;DHT22;46681;47.696;9.140;2023-03-14T08:20:05;11.90;65.80
60848;DHT22;46681;47.696;9.140;2023-03-14T08:22:31;11.90;66.00
60848;DHT22;46681;47.696;9.140;2023-03-14T08:24:59;11.90;65.60
60848;DHT22;46681;47.696;9.140;2023-03-14T08:27:25;12.00;65.60
60848;DHT22;46681;47.696;9.140;2023-03-14T08:29:55;12.10;65.70
60848;DHT22;46681;47.696;9.140;2023-03-14T08:32:26;12.20;65.60
60848;DHT22;46681;47.696;9.140;2023-03-14T08:34:52;12.20;65.50
60848;DHT22;46681;47.696;9.140;2023-03-14T08:37:21;12.30;65.30
60848;DHT22;46681;47.696;9.140;2023-03-14T08:39:51;12.30;65.20
60848;DHT22;46681;47.696;9.140;2023-03-14T08:42:24;12.30;65.10
60848;DHT22;46681;47.696;9.140;2023-03-14T08:44:53;12.30;65.40
60848;DHT22;46681;47.696;9.140;2023-03-14T08:47:25;12.40;65.20
60848;DHT22;46681;47.696;9.140;2023-03-14T08:49:58;12.40;65.30
60848;DHT22;46681;47.696;9.140;2023-03-14T08:52:51;12.40;65.50
60848;DHT22;46681;47.696;9.140;2023-03-14T08:55:18;12.40;64.70
60848;DHT22;46681;47.696;9.140;2023-03-14T08:57:47;12.50;65.00
60848;DHT22;46681;47.696;9.140;2023-03-14T09:00:14;12.50;64.70
60848;DHT22;46681;47.696;9.140;2023-03-14T09:02:44;12.60;64.50
60848;DHT22;46681;47.696;9.140;2023-03-14T09:05:17;12.60;63.80
60848;DHT22;46681;47.696;9.140;2023-03-14T09:07:48;12.60;63.80
60848;DHT22;46681;47.696;9.140;2023-03-14T09:10:18;12.70;63.70
60848;DHT22;46681;47.696;9.140;2023-03-14T09:12:47;12.70;62.70
60848;DHT22;46681;47.696;9.140;2023-03-14T09:15:16;12.80;63.60
60848;DHT22;46681;47.696;9.140;2023-03-14T09:17:46;12.80;62.60
60848;DHT22;46681;47.696;9.140;2023-03-14T09:20:12;13.00;61.10
60848;DHT22;46681;47.696;9.140;2023-03-14T09:22:40;13.20;60.70
60848;DHT22;46681;47.696;9.140;2023-03-14T09:25:07;13.50;60.60
60848;DHT22;46681;47.696;9.140;2023-03-14T09:27:40;13.60;60.00
60848;DHT22;46681;47.696;9.140;2023-03-14T09:30:08;13.60;60.40
60848;DHT22;46681;47.696;9.140;2023-03-14T09:32:58;13.70;59.50
60848;DHT22;46681;47.696;9.140;2023-03-14T09:35:28;13.70;58.90
60848;DHT22;46681;47.696;9.140;2023-03-14T09:37:57;13.70;58.90
60848;DHT22;46681;47.696;9.140;2023-03-14T09:40:31;13.60;59.30
60848;DHT22;46681;47.696;9.140;2023-03-14T09:43:08;13.60;58.40
60848;DHT22;46681;47.696;9.140;2023-03-14T09:45:41;13.60;59.20
60848;DHT22;46681;47.696;9.140;2023-03-14T09:48:15;13.70;59.00
60848;DHT22;46681;47.696;9.140;2023-03-14T09:50:54;13.70;59.70
60848;DHT22;46681;47.696;9.140;2023-03-14T09:53:44;13.80;58.70
60848;DHT22;46681;47.696;9.140;2023-03-14T09:56:16;13.80;58.40
60848;DHT22;46681;47.696;9.140;2023-03-14T09:58:57;13.80;58.80
60848;DHT22;46681;47.696;9.140;2023-03-14T10:01:41;13.80;59.00
60848;DHT22;46681;47.696;9.140;2023-03-14T10:04:21;13.80;59.60
60848;DHT22;46681;47.696;9.140;2023-03-14T10:06:56;13.80;58.80
60848;DHT22;46681;47.696;9.140;2023-03-14T10:09:30;13.80;60.30
60848;DHT22;46681;47.696;9.140;2023-03-14T10:12:18;13.70;58.70
60848;DHT22;46681;47.696;9.140;2023-03-14T10:14:52;13.70;59.90
60848;DHT22;46681;47.696;9.140;2023-03-14T10:17:28;13.70;60.00
60848;DHT22;46681;47.696;9.140;2023-03-14T10:20:04;13.60;58.90
60848;DHT22;46681;47.696;9.140;2023-03-14T10:22:37;13.60;60.30
60848;DHT22;46681;47.696;9.140;2023-03-14T10:25:29;13.60;59.70
60848;DHT22;46681;47.696;9.140;2023-03-14T10:31:01;13.50;59.90
60848;DHT22;46681;47.696;9.140;2023-03-14T10:33:34;13.50;59.40
60848;DHT22;46681;47.696;9.140;2023-03-14T10:36:32;13.40;59.50
60848;DHT22;46681;47.696;9.140;2023-03-14T10:39:51;13.40;59.70
60848;DHT22;46681;47.696;9.140;2023-03-14T10:42:44;13.40;58.40
60848;DHT22;46681;47.696;9.140;2023-03-14T10:48:41;13.40;57.80
60848;DHT22;46681;47.696;9.140;2023-03-14T10:54:09;13.10;57.40
60848;DHT22;46681;47.696;9.140;2023-03-14T10:57:11;13.10;58.50
60848;DHT22;46681;47.696;9.140;2023-03-14T10:59:54;13.00;58.50
60848;DHT22;46681;47.696;9.140;2023-03-14T11:11:32;12.80;60.80
60848;DHT22;46681;47.696;9.140;2023-03-14T11:14:38;13.00;61.20
60848;DHT22;46681;47.696;9.140;2023-03-14T11:17:30;13.00;61.10
60848;DHT22;46681;47.696;9.140;2023-03-14T11:32:36;12.50;60.70
60848;DHT22;46681;47.696;9.140;2023-03-14T11:41:01;12.40;61.20
60848;DHT22;46681;47.696;9.140;2023-03-14T11:43:38;12.40;62.20
60848;DHT22;46681;47.696;9.140;2023-03-14T11:46:26;12.40;61.50
60848;DHT22;46681;47.696;9.140;2023-03-14T11:52:01;12.20;62.80
60848;DHT22;46681;47.696;9.140;2023-03-14T11:57:23;12.10;62.70
60848;DHT22;46681;47.696;9.140;2023-03-14T12:00:14;12.00;63.10
60848;DHT22;46681;47.696;9.140;2023-03-14T12:03:27;12.00;64.20
60848;DHT22;46681;47.696;9.140;2023-03-14T12:09:18;11.80;64.10
60848;DHT22;46681;47.696;9.140;2023-03-14T12:12:33;12.00;63.80
60848;DHT22;46681;47.696;9.140;2023-03-14T12:15:27;12.10;63.00
60848;DHT22;46681;47.696;9.140;2023-03-14T12:18:00;12.20;63.30
60848;DHT22;46681;47.696;9.140;2023-03-14T12:20:27;12.20;63.00
60848;DHT22;46681;47.696;9.140;2023-03-14T12:23:16;12.20;62.20
60848;DHT22;46681;47.696;9.140;2023-03-14T12:25:46;12.20;62.50
60848;DHT22;46681;47.696;9.140;2023-03-14T12:28:31;12.20;63.20
60848;DHT22;46681;47.696;9.140;2023-03-14T12:31:38;12.10;62.30
60848;DHT22;46681;47.696;9.140;2023-03-14T12:40:45;12.10;62.60
60848;DHT22;46681;47.696;9.140;2023-03-14T12:43:28;12.10;62.80
60848;DHT22;46681;47.696;9.140;2023-03-14T12:51:47;12.00;62.90
60848;DHT22;46681;47.696;9.140;2023-03-14T13:02:42;11.90;62.70
60848;DHT22;46681;47.696;9.140;2023-03-14T13:05:23;11.80;63.30
60848;DHT22;46681;47.696;9.140;2023-03-14T13:10:57;12.00;63.30
60848;DHT22;46681;47.696;9.140;2023-03-14T13:13:27;12.00;63.30
60848;DHT22;46681;47.696;9.140;2023-03-14T13:19:19;12.00;62.90
60848;DHT22;46681;47.696;9.140;2023-03-14T13:22:21;12.00;62.90
60848;DHT22;46681;47.696;9.140;2023-03-14T13:24:49;12.00;63.10
60848;DHT22;46681;47.696;9.140;2023-03-14T13:27:31;12.00;63.70
60848;DHT22;46681;47.696;9.140;2023-03-14T13:30:04;12.10;63.50
60848;DHT22;46681;47.696;9.140;2023-03-14T13:32:42;12.10;63.40
60848;DHT22;46681;47.696;9.140;2023-03-14T13:35:37;12.20;63.10
60848;DHT22;46681;47.696;9.140;2023-03-14T13:38:29;12.20;63.30
60848;DHT22;46681;47.696;9.140;2023-03-14T13:41:04;12.20;63.60
60848;DHT22;46681;47.696;9.140;2023-03-14T13:43:46;12.20;63.50
60848;DHT22;46681;47.696;9.140;2023-03-14T13:46:22;12.20;62.90
60848;DHT22;46681;47.696;9.140;2023-03-14T13:49:05;12.20;62.10
60848;DHT22;46681;47.696;9.140;2023-03-14T13:51:41;12.30;62.40
60848;DHT22;46681;47.696;9.140;2023-03-14T13:54:21;12.30;62.30
60848;DHT22;46681;47.696;9.140;2023-03-14T13:57:00;12.40;61.30
60848;DHT22;46681;47.696;9.140;2023-03-14T13:59:35;12.50;60.70
60848;DHT22;46681;47.696;9.140;2023-03-14T14:02:14;12.60;60.60
60848;DHT22;46681;47.696;9.140;2023-03-14T14:04:43;12.80;60.80
60848;DHT22;46681;47.696;9.140;2023-03-14T14:07:20;12.80;60.50
60848;DHT22;46681;47.696;9.140;2023-03-14T14:09:49;12.80;61.90
60848;DHT22;46681;47.696;9.140;2023-03-14T14:12:29;12.80;61.30
60848;DHT22;46681;47.696;9.140;2023-03-14T14:15:02;12.80;61.80
60848;DHT22;46681;47.696;9.140;2023-03-14T14:20:10;13.00;59.80
60848;DHT22;46681;47.696;9.140;2023-03-14T14:22:47;13.10;57.60
60848;DHT22;46681;47.696;9.140;2023-03-14T14:25:18;13.10;58.50
60848;DHT22;46681;47.696;9.140;2023-03-14T14:27:56;13.20;56.50
60848;DHT22;46681;47.696;9.140;2023-03-14T14:30:32;13.20;56.90
60848;DHT22;46681;47.696;9.140;2023-03-14T14:36:39;13.30;57.40
60848;DHT22;46681;47.696;9.140;2023-03-14T14:39:25;13.30;56.50
60848;DHT22;46681;47.696;9.140;2023-03-14T14:42:13;13.30;55.40
60848;DHT22;46681;47.696;9.140;2023-03-14T14:45:02;13.40;53.60
60848;DHT22;46681;47.696;9.140;2023-03-14T14:47:51;13.20;54.50
60848;DHT22;46681;47.696;9.140;2023-03-14T14:50:34;13.20;53.10
60848;DHT22;46681;47.696;9.140;2023-03-14T14:56:37;12.90;53.80
60848;DHT22;46681;47.696;9.140;2023-03-14T14:59:41;12.80;53.90
60848;DHT22;46681;47.696;9.140;2023-03-14T15:02:38;12.70;54.50
60848;DHT22;46681;47.696;9.140;2023-03-14T15:05:24;12.70;53.20
60848;DHT22;46681;47.696;9.140;2023-03-14T15:07:50;12.60;53.80
60848;DHT22;46681;47.696;9.140;2023-03-14T15:10:32;12.50;54.60
60848;DHT22;46681;47.696;9.140;2023-03-14T15:13:01;12.50;53.50
60848;DHT22;46681;47.696;9.140;2023-03-14T15:15:31;12.40;54.00
60848;DHT22;46681;47.696;9.140;2023-03-14T15:17:59;12.30;54.10
60848;DHT22;46681;47.696;9.140;2023-03-14T15:20:30;12.30;54.50
60848;DHT22;46681;47.696;9.140;2023-03-14T15:22:56;12.30;54.40
60848;DHT22;46681;47.696;9.140;2023-03-14T15:25:28;12.30;54.40
60848;DHT22;46681;47.696;9.140;2023-03-14T15:27:58;12.30;54.30
60848;DHT22;46681;47.696;9.140;2023-03-14T15:30:29;12.30;54.40
60848;DHT22;46681;47.696;9.140;2023-03-14T15:33:05;12.30;54.20
60848;DHT22;46681;47.696;9.140;2023-03-14T15:35:31;12.30;54.00
60848;DHT22;46681;47.696;9.140;2023-03-14T15:38:02;12.30;54.00
60848;DHT22;46681;47.696;9.140;2023-03-14T15:40:31;12.30;54.40
60848;DHT22;46681;47.696;9.140;2023-03-14T15:43:03;12.20;53.90
60848;DHT22;46681;47.696;9.140;2023-03-14T15:45:33;12.20;53.80
60848;DHT22;46681;47.696;9.140;2023-03-14T15:48:04;12.20;54.00
60848;DHT22;46681;47.696;9.140;2023-03-14T15:50:34;12.10;54.20
60848;DHT22;46681;47.696;9.140;2023-03-14T15:53:02;12.10;54.80
60848;DHT22;46681;47.696;9.140;2023-03-14T15:55:32;12.10;54.50
60848;DHT22;46681;47.696;9.140;2023-03-14T15:58:03;12.10;54.30
60848;DHT22;46681;47.696;9.140;2023-03-14T16:00:32;12.00;54.30
60848;DHT22;46681;47.696;9.140;2023-03-14T16:03:13;12.00;55.00
60848;DHT22;46681;47.696;9.140;2023-03-14T16:05:55;12.00;54.60
60848;DHT22;46681;47.696;9.140;2023-03-14T16:11:18;12.10;55.30
60848;DHT22;46681;47.696;9.140;2023-03-14T16:13:44;12.10;55.30
60848;DHT22;46681;47.696;9.140;2023-03-14T16:16:12;12.20;55.10
60848;DHT22;46681;47.696;9.140;2023-03-14T16:18:51;12.20;55.40
60848;DHT22;46681;47.696;9.140;2023-03-14T16:21:32;12.20;55.50
60848;DHT22;46681;47.696;9.140;2023-03-14T16:23:59;12.20;55.80
60848;DHT22;46681;47.696;9.140;2023-03-14T16:29:51;12.20;55.90
60848;DHT22;46681;47.696;9.140;2023-03-14T16:32:31;12.20;55.50
60848;DHT22;46681;47.696;9.140;2023-03-14T16:35:08;12.20;55.80
60848;DHT22;46681;47.696;9.140;2023-03-14T16:43:49;12.20;56.00
60848;DHT22;46681;47.696;9.140;2023-03-14T16:49:14;12.20;56.70
60848;DHT22;46681;47.696;9.140;2023-03-14T16:55:01;12.20;56.60
60848;DHT22;46681;47.696;9.140;2023-03-14T16:57:41;12.10;56.90
60848;DHT22;46681;47.696;9.140;2023-03-14T17:00:40;12.20;57.00
60848;DHT22;46681;47.696;9.140;2023-03-14T17:03:11;12.10;57.00
60848;DHT22;46681;47.696;9.140;2023-03-14T17:05:44;12.10;57.00
60848;DHT22;46681;47.696;9.140;2023-03-14T17:08:15;12.10;57.20
60848;DHT22;46681;47.696;9.140;2023-03-14T17:10:46;12.10;57.00
60848;DHT22;46681;47.696;9.140;2023-03-14T17:16:25;12.10;58.60
60848;DHT22;46681;47.696;9.140;2023-03-14T17:19:03;12.20;58.50
60848;DHT22;46681;47.696;9.140;2023-03-14T17:21:40;12.20;57.80
60848;DHT22;46681;47.696;9.140;2023-03-14T17:24:28;12.10;58.10
60848;DHT22;46681;47.696;9.140;2023-03-14T17:27:30;12.10;57.60
60848;DHT22;46681;47.696;9.140;2023-03-14T17:30:14;12.10;57.50
60848;DHT22;46681;47.696;9.140;2023-03-14T17:33:19;12.00;57.40
60848;DHT22;46681;47.696;9.140;2023-03-14T17:35:58;12.00;57.60
60848;DHT22;46681;47.696;9.140;2023-03-14T17:45:19;11.90;57.60
60848;DHT22;46681;47.696;9.140;2023-03-14T17:54:16;11.80;57.90
60848;DHT22;46681;47.696;9.140;2023-03-14T18:07:44;11.50;58.30
60848;DHT22;46681;47.696;9.140;2023-03-14T18:13:29;11.50;58.70
60848;DHT22;46681;47.696;9.140;2023-03-14T18:19:58;11.40;58.80
60848;DHT22;46681;47.696;9.140;2023-03-14T18:22:35;11.30;58.70
60848;DHT22;46681;47.696;9.140;2023-03-14T18:37:38;11.10;59.00
60848;DHT22;46681;47.696;9.140;2023-03-14T18:40:37;11.10;59.90